Time;durP1;ratioP1;P1;durP2;ratioP2;P2;SDS_P1;SDS_P2;PMS_P1;PMS_P2;Temp;Humidity;BMP_temperature;BMP_pressure;BME280_temperature;BME280_humidity;BME280_pressure;Samples;Min_cycle;Max_cycle;Signal;HPM_P1;HPM_P2
2022/05/22 00:01:01;;;;;;;3.30;1.00;;;;;;;11.94;64.52;98242.71;106022;1277;137435;-75
2022/05/22 00:03:28;;;;;;;2.70;1.30;;;;;;;11.91;64.68;98243.49;105844;1277;23454;-75
2022/05/22 00:05:55;;;;;;;2.10;1.10;;;;;;;11.90;64.93;98241.23;106357;1277;22565;-77
2022/05/22 00:08:21;;;;;;;2.30;1.00;;;;;;;11.90;64.76;98236.27;106409;1277;138564;-75
2022/05/22 00:10:49;;;;;;;2.70;1.20;;;;;;;11.94;64.65;98233.75;106194;1277;22583;-75
2022/05/22 00:13:17;;;;;;;1.70;1.10;;;;;;;11.98;64.97;98239.19;106060;1277;137748;-75
2022/05/22 00:16:36;;;;;;;1.50;1.20;;;;;;;12.01;64.90;98237.25;106165;1277;23755;-75
2022/05/22 00:18:45;;;;;;;2.10;1.30;;;;;;;12.00;64.71;98231.95;106199;1277;137673;-75
2022/05/22 00:21:26;;;;;;;3.20;1.30;;;;;;;11.97;64.87;98233.08;106147;1277;22579;-75
2022/05/22 00:23:53;;;;;;;5.30;1.30;;;;;;;11.95;65.21;98232.83;106143;1277;22627;-75
2022/05/22 00:26:20;;;;;;;3.50;1.30;;;;;;;11.93;65.04;98225.73;105927;1277;137186;-75
2022/05/22 00:28:47;;;;;;;3.10;1.50;;;;;;;11.89;64.96;98230.69;106252;1277;22625;-75
2022/05/22 00:31:13;;;;;;;3.70;1.30;;;;;;;11.86;65.36;98228.57;106152;1277;137970;-75
2022/05/22 00:33:40;;;;;;;3.70;1.50;;;;;;;11.82;65.57;98230.17;106260;1277;24292;-76
2022/05/22 00:36:07;;;;;;;6.70;1.80;;;;;;;11.78;65.59;98232.27;106336;1277;22540;-75
2022/05/22 00:38:35;;;;;;;2.50;1.40;;;;;;;11.76;65.69;98231.53;106239;1277;137373;-75
2022/05/22 00:41:03;;;;;;;4.60;1.60;;;;;;;11.74;65.67;98230.54;106161;1277;22558;-75
2022/05/22 00:43:45;;;;;;;3.70;1.60;;;;;;;11.73;65.92;98227.38;106056;1277;137232;-76
2022/05/22 00:46:14;;;;;;;4.00;2.00;;;;;;;11.73;66.09;98227.14;106876;1277;22550;-75
2022/05/22 00:48:44;;;;;;;3.60;1.70;;;;;;;11.72;66.38;98226.54;106469;1277;137400;-75
2022/05/22 00:51:19;;;;;;;4.80;1.80;;;;;;;11.71;66.55;98226.26;106303;1277;25352;-75
2022/05/22 00:53:52;;;;;;;3.90;1.60;;;;;;;11.72;66.40;98226.86;106118;1277;22598;-75
2022/05/22 00:56:31;;;;;;;5.10;1.80;;;;;;;11.75;66.71;98233.01;105927;1277;138389;-76
2022/05/22 00:58:59;;;;;;;5.60;2.30;;;;;;;11.78;66.51;98237.09;106564;1277;22551;-75
2022/05/22 01:01:27;;;;;;;4.20;2.00;;;;;;;11.82;66.53;98237.11;105828;1277;137481;-75
2022/05/22 01:04:15;;;;;;;6.50;2.50;;;;;;;11.85;66.49;98234.08;106246;1277;25500;-76
2022/05/22 01:06:46;;;;;;;7.00;2.40;;;;;;;11.87;66.26;98234.75;106047;1277;137450;-76
2022/05/22 01:09:15;;;;;;;6.60;2.40;;;;;;;11.88;66.08;98232.20;106570;1277;22537;-75
2022/05/22 01:11:43;;;;;;;5.70;2.40;;;;;;;11.88;66.15;98230.67;106123;1277;22537;-75
2022/05/22 01:14:14;;;;;;;5.50;2.30;;;;;;;11.89;66.24;98224.07;106112;1278;137123;-76
2022/05/22 01:16:42;;;;;;;7.80;2.30;;;;;;;11.88;66.13;98224.84;106075;1277;22553;-76
2022/05/22 01:19:16;;;;;;;5.40;2.10;;;;;;;11.89;66.07;98222.82;106147;1277;138005;-76
2022/05/22 01:21:57;;;;;;;3.00;2.00;;;;;;;11.90;66.29;98220.61;105764;1278;22551;-76
2022/05/22 01:24:25;;;;;;;4.50;1.90;;;;;;;11.91;66.21;98218.98;106073;1277;24441;-76
2022/05/22 01:26:54;;;;;;;4.00;1.90;;;;;;;11.90;65.83;98220.40;105704;1277;137475;-76
2022/05/22 01:29:30;;;;;;;3.20;1.80;;;;;;;11.89;66.01;98220.20;106109;1278;25260;-76
2022/05/22 01:31:57;;;;;;;4.00;2.80;;;;;;;11.88;66.35;98217.52;106013;1277;137399;-77
2022/05/22 01:34:25;;;;;;;3.10;1.60;;;;;;;11.86;66.15;98219.67;106066;1277;22632;-76
2022/05/22 01:36:53;;;;;;;5.80;1.80;;;;;;;11.83;66.30;98220.48;106249;1277;137493;-76
2022/05/22 01:39:21;;;;;;;3.20;1.90;;;;;;;11.80;66.66;98217.77;106198;1277;22538;-77
2022/05/22 01:41:52;;;;;;;5.40;2.10;;;;;;;11.77;67.02;98220.70;106080;1277;22792;-76
2022/05/22 01:44:21;;;;;;;2.30;1.50;;;;;;;11.76;67.08;98218.51;106386;1277;137889;-76
2022/05/22 01:46:48;;;;;;;3.70;2.10;;;;;;;11.78;67.34;98218.36;106038;1277;22718;-76
2022/05/22 01:49:17;;;;;;;4.10;2.00;;;;;;;11.81;67.39;98213.91;105939;1277;137732;-76
2022/05/22 01:51:45;;;;;;;3.30;2.00;;;;;;;11.85;67.61;98217.98;106244;1277;22540;-75
2022/05/22 01:54:13;;;;;;;6.30;1.70;;;;;;;11.88;67.33;98215.06;106505;1276;22653;-76
2022/05/22 01:56:41;;;;;;;3.30;2.40;;;;;;;11.90;67.35;98213.25;105953;1277;137247;-75
2022/05/22 01:59:09;;;;;;;2.80;1.80;;;;;;;11.92;67.41;98213.50;106241;1277;22554;-75
2022/05/22 02:01:49;;;;;;;5.70;1.80;;;;;;;11.91;67.49;98213.81;106466;1277;137369;-75
2022/05/22 02:04:16;;;;;;;3.40;1.70;;;;;;;11.91;67.52;98206.66;106660;1277;22557;-76
2022/05/22 02:09:38;;;;;;;3.60;1.70;;;;;;;11.93;67.98;98206.84;106206;1277;22537;-75
2022/05/22 02:12:05;;;;;;;3.30;2.00;;;;;;;11.93;67.79;98205.66;106419;1277;22836;-75
2022/05/22 02:14:32;;;;;;;5.30;1.70;;;;;;;11.93;67.64;98198.49;106241;1277;137628;-76
2022/05/22 02:17:04;;;;;;;5.20;1.70;;;;;;;11.92;67.95;98192.86;106378;1277;22554;-75
2022/05/22 02:19:34;;;;;;;3.50;1.90;;;;;;;11.88;67.89;98195.63;106162;1277;137211;-76
2022/05/22 02:22:01;;;;;;;5.80;2.00;;;;;;;11.85;68.06;98195.02;106033;1277;25584;-75
2022/05/22 02:24:28;;;;;;;5.70;1.50;;;;;;;11.82;68.08;98200.94;106275;1277;23910;-75
2022/05/22 02:27:06;;;;;;;3.40;1.70;;;;;;;11.80;68.28;98195.61;106076;1277;138012;-75
2022/05/22 02:29:36;;;;;;;5.70;2.00;;;;;;;11.78;68.43;98199.86;106047;1279;23945;-75
2022/05/22 02:32:04;;;;;;;5.00;1.80;;;;;;;11.76;68.52;98195.86;106060;1278;137379;-75
2022/05/22 02:34:30;;;;;;;4.70;2.10;;;;;;;11.73;68.51;98193.48;106370;1277;22560;-75
2022/05/22 02:36:58;;;;;;;3.40;2.30;;;;;;;11.69;68.63;98191.54;105888;1277;138128;-75
2022/05/22 02:39:25;;;;;;;4.90;2.30;;;;;;;11.66;68.61;98192.70;106192;1277;22534;-75
2022/05/22 02:41:52;;;;;;;2.20;1.70;;;;;;;11.61;68.93;98193.42;106422;1277;22568;-75
2022/05/22 02:44:19;;;;;;;3.90;1.70;;;;;;;11.57;68.97;98190.55;106143;1277;137899;-75
2022/05/22 02:46:45;;;;;;;5.20;2.10;;;;;;;11.54;69.09;98190.27;105935;1278;23221;-76
2022/05/22 02:49:12;;;;;;;3.70;2.20;;;;;;;11.52;69.04;98191.38;106194;1277;137360;-75
2022/05/22 02:51:54;;;;;;;5.90;2.20;;;;;;;11.49;69.48;98189.27;105765;1278;22547;-75
2022/05/22 02:54:21;;;;;;;3.90;2.20;;;;;;;11.46;69.26;98190.17;106166;1277;22646;-75
2022/05/22 02:56:57;;;;;;;4.10;2.60;;;;;;;11.44;69.34;98192.39;106211;1277;137451;-75
2022/05/22 02:59:44;;;;;;;3.30;1.90;;;;;;;11.40;69.35;98200.09;106703;1277;24164;-76
2022/05/22 03:02:30;;;;;;;3.80;1.80;;;;;;;11.37;69.79;98198.58;106187;1277;138114;-76
2022/05/22 03:04:57;;;;;;;5.70;2.10;;;;;;;11.34;69.77;98198.67;106114;1277;22627;-76
2022/05/22 03:07:28;;;;;;;4.90;2.60;;;;;;;11.33;69.93;98199.25;105869;1277;137302;-75
2022/05/22 03:09:56;;;;;;;4.30;2.40;;;;;;;11.33;70.20;98197.84;105937;1278;25328;-76
2022/05/22 03:12:24;;;;;;;4.10;2.50;;;;;;;11.29;70.16;98200.58;106063;1278;26689;-76
2022/05/22 03:14:57;;;;;;;7.60;3.20;;;;;;;11.25;70.12;98197.98;105974;1277;137229;-76
2022/05/22 03:17:26;;;;;;;4.40;2.80;;;;;;;11.22;70.42;98195.80;106269;1277;25114;-76
2022/05/22 03:19:55;;;;;;;4.80;3.10;;;;;;;11.20;70.34;98193.22;106292;1276;138407;-76
2022/05/22 03:22:22;;;;;;;4.50;2.60;;;;;;;11.18;70.66;98197.34;106420;1277;22542;-76
2022/05/22 03:24:50;;;;;;;4.30;3.20;;;;;;;11.17;70.65;98191.72;105953;1277;137487;-76
2022/05/22 03:27:19;;;;;;;4.80;3.10;;;;;;;11.17;70.96;98191.02;106165;1277;24438;-76
2022/05/22 03:29:47;;;;;;;4.40;2.90;;;;;;;11.16;70.83;98187.89;106325;1277;22560;-76
2022/05/22 03:32:15;;;;;;;6.90;3.40;;;;;;;11.13;70.89;98188.09;105973;1277;137311;-76
2022/05/22 03:34:43;;;;;;;6.30;3.20;;;;;;;11.11;71.21;98182.05;106228;1277;25067;-76
2022/05/22 03:37:11;;;;;;;5.70;3.10;;;;;;;11.10;71.36;98183.46;106160;1277;138046;-76
2022/05/22 03:39:39;;;;;;;8.10;3.70;;;;;;;11.10;71.49;98180.64;106747;1277;25436;-76
2022/05/22 03:42:06;;;;;;;7.00;3.90;;;;;;;11.08;71.54;98178.23;106121;1277;22550;-76
2022/05/22 03:44:35;;;;;;;6.50;4.00;;;;;;;11.08;71.65;98179.95;106324;1277;137598;-76
2022/05/22 03:47:03;;;;;;;6.30;4.10;;;;;;;11.08;71.74;98186.45;106207;1278;25418;-76
2022/05/22 03:49:37;;;;;;;9.40;4.80;;;;;;;11.06;71.92;98186.52;105957;1278;137441;-76
2022/05/22 03:52:05;;;;;;;9.10;4.30;;;;;;;11.04;72.08;98191.36;106241;1277;22543;-76
2022/05/22 03:54:32;;;;;;;10.30;4.70;;;;;;;11.03;72.35;98189.99;106210;1277;25326;-76
2022/05/22 03:57:01;;;;;;;10.40;3.80;;;;;;;11.04;72.22;98194.19;106178;1277;137829;-76
2022/05/22 03:59:32;;;;;;;4.70;3.60;;;;;;;11.06;72.42;98192.80;106079;1277;23036;-76
2022/05/22 04:01:59;;;;;;;5.20;3.90;;;;;;;11.07;72.89;98196.46;106074;1277;137378;-76
2022/05/22 04:04:26;;;;;;;6.60;4.80;;;;;;;11.07;72.72;98196.90;106484;1277;22542;-76
2022/05/22 04:06:53;;;;;;;5.60;4.50;;;;;;;11.06;72.94;98200.38;105951;1278;137453;-76
2022/05/22 04:09:23;;;;;;;6.90;4.20;;;;;;;11.07;72.89;98200.98;106275;1277;23963;-76
2022/05/22 04:12:09;;;;;;;9.40;5.00;;;;;;;11.13;73.01;98201.11;106455;1277;22543;-76
2022/05/22 04:14:38;;;;;;;9.00;5.40;;;;;;;11.21;72.96;98200.27;105817;1278;137472;-76
2022/05/22 04:17:10;;;;;;;8.30;4.70;;;;;;;11.29;72.90;98196.77;106155;1277;31805;-76
2022/05/22 04:19:51;;;;;;;7.80;3.90;;;;;;;11.34;72.85;98197.14;106123;1277;137220;-76
2022/05/22 04:22:19;;;;;;;9.80;4.10;;;;;;;11.36;72.75;98193.94;107044;1277;24373;-76
2022/05/22 04:27:29;;;;;;;5.20;3.80;;;;;;;11.41;72.65;98188.00;106150;1279;30836;-76
2022/05/22 04:29:57;;;;;;;10.00;4.50;;;;;;;11.44;72.59;98188.41;106118;1277;22550;-76
2022/05/22 04:32:26;;;;;;;8.10;5.60;;;;;;;11.46;72.54;98194.66;106069;1278;138268;-76
2022/05/22 04:34:57;;;;;;;6.60;5.40;;;;;;;11.48;72.49;98192.92;106065;1278;22673;-76
2022/05/22 04:37:26;;;;;;;10.70;5.30;;;;;;;11.49;72.99;98192.77;106166;1277;137469;-76
2022/05/22 04:39:56;;;;;;;8.40;5.40;;;;;;;11.51;72.90;98191.59;106461;1277;22536;-76
2022/05/22 04:42:23;;;;;;;7.00;5.20;;;;;;;11.54;72.69;98188.41;106169;1277;22626;-76
2022/05/22 04:44:50;;;;;;;7.40;4.20;;;;;;;11.59;73.12;98193.73;106229;1277;137202;-76
2022/05/22 04:47:35;;;;;;;6.10;4.50;;;;;;;11.62;72.87;98193.50;106284;1277;22534;-76
2022/05/22 04:50:33;;;;;;;8.40;4.80;;;;;;;11.65;72.77;98188.95;105912;1277;137334;-74
2022/05/22 04:53:15;;;;;;;8.90;4.70;;;;;;;11.66;72.68;98185.84;105985;1277;22560;-75
2022/05/22 04:56:02;;;;;;;6.60;4.70;;;;;;;11.69;73.05;98192.03;105770;1277;138085;-75
2022/05/22 04:58:34;;;;;;;6.00;4.50;;;;;;;11.71;72.63;98188.55;106532;1277;23516;-76
2022/05/22 05:01:10;;;;;;;8.00;4.60;;;;;;;11.73;72.67;98185.04;105997;1277;137655;-77
2022/05/22 05:03:43;;;;;;;7.70;4.80;;;;;;;11.76;72.49;98188.77;106579;1277;22556;-74
2022/05/22 05:06:10;;;;;;;6.90;3.60;;;;;;;11.77;72.52;98186.88;106437;1277;23206;-75
2022/05/22 05:08:39;;;;;;;9.90;4.50;;;;;;;11.81;72.64;98191.80;106211;1278;137826;-76
2022/05/22 05:11:30;;;;;;;8.20;3.60;;;;;;;11.87;72.50;98187.01;106515;1278;25854;-75
2022/05/22 05:14:04;;;;;;;7.10;5.10;;;;;;;11.93;72.38;98188.83;105877;1277;137935;-75
2022/05/22 05:16:45;;;;;;;10.10;4.60;;;;;;;11.96;72.20;98186.45;105980;1277;25373;-75
2022/05/22 05:19:14;;;;;;;6.30;4.40;;;;;;;12.00;71.92;98175.30;106417;1276;137606;-75
2022/05/22 05:21:43;;;;;;;6.50;4.10;;;;;;;12.05;71.95;98179.77;106106;1277;22581;-75
2022/05/22 05:24:11;;;;;;;5.80;3.90;;;;;;;12.10;71.91;98185.20;106389;1277;22830;-75
2022/05/22 05:26:39;;;;;;;9.60;4.30;;;;;;;12.18;71.79;98183.98;106014;1276;137487;-75
2022/05/22 05:29:13;;;;;;;10.20;4.60;;;;;;;12.29;71.91;98184.30;105979;1278;22538;-75
2022/05/22 05:31:41;;;;;;;9.50;4.60;;;;;;;12.39;71.20;98181.13;106443;1278;137346;-75
2022/05/22 05:34:22;;;;;;;9.50;4.50;;;;;;;12.46;70.79;98177.80;106454;1277;22563;-75
2022/05/22 05:37:05;;;;;;;9.00;3.80;;;;;;;12.56;71.13;98180.47;106207;1277;138094;-75
2022/05/22 05:39:55;;;;;;;9.00;4.50;;;;;;;12.62;69.82;98180.48;106617;1277;24257;-75
2022/05/22 05:42:31;;;;;;;4.90;3.20;;;;;;;12.63;69.99;98180.11;106073;1277;22530;-75
2022/05/22 05:44:59;;;;;;;6.70;3.20;;;;;;;12.68;69.12;98177.64;106459;1277;137652;-75
2022/05/22 05:47:30;;;;;;;7.20;3.50;;;;;;;12.72;68.52;98181.87;106314;1276;25422;-75
2022/05/22 05:50:12;;;;;;;5.90;3.90;;;;;;;12.73;68.36;98176.63;106269;1278;137801;-75
2022/05/22 05:52:58;;;;;;;8.20;3.60;;;;;;;12.75;68.47;98179.30;105989;1277;22700;-75
2022/05/22 05:55:54;;;;;;;5.90;3.10;;;;;;;12.81;68.09;98173.22;105657;1278;138554;-75
2022/05/22 05:58:49;;;;;;;8.30;3.90;;;;;;;12.86;68.03;98172.03;106621;1277;24282;-75
2022/05/22 06:01:28;;;;;;;7.70;3.40;;;;;;;12.95;68.17;98176.33;106698;1275;137416;-75
2022/05/22 06:04:10;;;;;;;6.00;2.80;;;;;;;13.06;67.58;98174.90;106283;1277;22630;-75
2022/05/22 06:06:37;;;;;;;4.00;2.90;;;;;;;13.18;67.09;98168.48;106540;1277;25349;-75
2022/05/22 06:09:05;;;;;;;5.00;2.50;;;;;;;13.30;66.21;98167.33;106188;1277;136977;-76
2022/05/22 06:11:41;;;;;;;7.20;3.00;;;;;;;13.45;65.84;98168.19;106734;1278;22543;-75
2022/05/22 06:14:35;;;;;;;7.10;2.90;;;;;;;13.57;65.09;98162.58;106345;1278;137644;-74
2022/05/22 06:17:02;;;;;;;6.20;3.10;;;;;;;13.65;64.82;98167.13;106220;1277;25275;-75
2022/05/22 06:19:54;;;;;;;6.40;2.30;;;;;;;13.77;64.41;98169.11;105980;1277;137703;-75
2022/05/22 06:22:25;;;;;;;6.00;2.20;;;;;;;13.87;63.25;98170.21;106195;1277;22560;-76
2022/05/22 06:24:53;;;;;;;5.30;2.30;;;;;;;13.98;63.01;98170.41;106401;1277;137651;-75
2022/05/22 06:27:21;;;;;;;5.00;2.00;;;;;;;14.05;62.45;98171.45;106222;1277;25257;-76
2022/05/22 06:30:04;;;;;;;6.00;2.20;;;;;;;14.11;61.56;98172.55;106209;1279;31753;-75
2022/05/22 06:32:52;;;;;;;4.60;2.30;;;;;;;14.07;59.84;98176.93;105951;1279;137941;-76
2022/05/22 06:35:28;;;;;;;5.00;2.30;;;;;;;14.03;59.22;98172.27;106439;1279;22540;-75
2022/05/22 06:41:11;;;;;;;5.40;1.70;;;;;;;14.10;59.51;98174.14;106540;1277;22566;-75
2022/05/22 06:43:49;;;;;;;4.30;2.00;;;;;;;14.25;58.42;98170.50;106112;1277;137686;-76
2022/05/22 06:46:30;;;;;;;5.70;1.80;;;;;;;14.44;58.64;98169.48;106224;1277;23308;-75
2022/05/22 06:49:12;;;;;;;5.20;2.00;;;;;;;14.58;58.11;98168.27;106162;1277;137641;-74
2022/05/22 06:52:04;;;;;;;4.70;1.90;;;;;;;14.65;56.37;98165.09;106089;1278;22596;-74
2022/05/22 06:55:00;;;;;;;5.40;1.90;;;;;;;14.60;55.73;98161.48;106180;1277;137354;-74
2022/05/22 06:57:47;;;;;;;4.70;1.80;;;;;;;14.59;54.92;98161.20;106071;1279;22590;-75
2022/05/22 07:00:39;;;;;;;3.70;1.80;;;;;;;14.57;54.72;98163.95;106652;1277;30710;-74
2022/05/22 07:03:35;;;;;;;4.70;1.60;;;;;;;14.59;55.05;98166.47;106066;1277;23833;-75
2022/05/22 07:06:25;;;;;;;4.30;2.00;;;;;;;14.59;54.69;98173.92;106134;1277;23913;-75
2022/05/22 07:09:19;;;;;;;3.50;2.10;;;;;;;14.49;54.25;98172.88;106037;1277;137822;-74
2022/05/22 07:12:18;;;;;;;6.00;2.10;;;;;;;14.39;54.63;98174.81;105963;1278;25481;-75
2022/05/22 07:15:12;;;;;;;4.40;1.60;;;;;;;14.39;54.07;98171.57;106347;1279;137412;-75
2022/05/22 07:17:45;;;;;;;5.90;2.10;;;;;;;14.38;54.37;98166.44;106351;1277;24301;-75
2022/05/22 07:20:26;;;;;;;8.00;2.30;;;;;;;14.37;54.15;98168.08;106041;1277;137233;-75
2022/05/22 07:23:30;;;;;;;4.40;1.60;;;;;;;14.33;53.91;98168.14;106232;1277;22557;-75
2022/05/22 07:26:27;;;;;;;4.50;1.80;;;;;;;14.52;54.73;98157.86;106620;1277;137772;-75
2022/05/22 07:29:08;;;;;;;3.10;1.40;;;;;;;14.74;54.50;98157.92;106216;1277;26600;-75
2022/05/22 07:32:04;;;;;;;2.70;1.50;;;;;;;14.94;53.68;98154.63;106204;1277;137274;-75
2022/05/22 07:34:47;;;;;;;3.60;1.40;;;;;;;15.07;52.63;98157.01;106485;1277;24328;-77
2022/05/22 07:37:55;;;;;;;3.20;1.30;;;;;;;15.25;51.67;98159.17;105893;1277;137604;-75
2022/05/22 07:40:37;;;;;;;2.70;1.30;;;;;;;15.36;51.61;98150.77;106014;1277;25345;-75
2022/05/22 07:43:19;;;;;;;5.80;1.20;;;;;;;15.37;50.76;98155.70;106337;1277;138031;-74
2022/05/22 07:46:01;;;;;;;1.40;1.00;;;;;;;15.34;51.47;98147.48;106428;1277;22547;-75
2022/05/22 07:48:45;;;;;;;3.00;1.30;;;;;;;15.31;51.14;98146.35;106112;1277;22554;-75
2022/05/22 07:51:37;;;;;;;3.70;1.40;;;;;;;15.25;50.92;98148.64;106103;1277;137097;-75
2022/05/22 07:54:18;;;;;;;2.80;1.10;;;;;;;15.20;51.84;98155.30;106218;1277;22547;-75
2022/05/22 07:56:59;;;;;;;4.20;1.20;;;;;;;15.41;51.55;98147.11;105939;1277;137366;-75
2022/05/22 07:59:41;;;;;;;3.30;1.20;;;;;;;15.46;51.17;98150.66;106264;1277;22541;-75
2022/05/22 08:02:38;;;;;;;3.40;1.00;;;;;;;15.52;51.01;98146.11;105862;1277;137237;-74
2022/05/22 08:05:20;;;;;;;4.00;1.60;;;;;;;15.54;49.82;98146.30;106064;1277;23402;-75
2022/05/22 08:07:54;;;;;;;2.10;1.00;;;;;;;15.50;49.59;98139.70;106177;1280;138135;-75
2022/05/22 08:10:32;;;;;;;2.40;1.10;;;;;;;15.48;49.29;98142.45;105698;1279;22543;-74
2022/05/22 08:13:05;;;;;;;2.60;1.40;;;;;;;15.54;50.01;98137.59;105826;1279;22568;-75
2022/05/22 08:15:36;;;;;;;4.80;1.20;;;;;;;15.72;50.76;98134.23;105988;1276;136993;-74
2022/05/22 08:18:30;;;;;;;1.90;1.00;;;;;;;15.83;50.18;98142.11;106464;1276;22579;-75
2022/05/22 08:20:57;;;;;;;3.80;1.10;;;;;;;15.82;49.43;98141.20;107185;1277;137462;-74
2022/05/22 08:23:25;;;;;;;2.50;1.00;;;;;;;15.81;48.88;98136.42;106613;1277;23210;-75
2022/05/22 08:25:56;;;;;;;3.60;1.30;;;;;;;15.80;48.57;98138.08;106363;1277;137404;-75
2022/05/22 08:28:24;;;;;;;3.80;1.20;;;;;;;15.82;48.82;98132.30;106404;1277;24299;-75
2022/05/22 08:30:54;;;;;;;3.20;1.20;;;;;;;15.85;48.85;98133.52;106449;1277;348660;-75
2022/05/22 08:33:22;;;;;;;4.40;1.20;;;;;;;16.04;48.22;98129.59;106258;1277;137425;-75
2022/05/22 08:35:49;;;;;;;4.20;1.00;;;;;;;16.12;48.62;98125.27;106320;1277;22554;-75
2022/05/22 08:38:19;;;;;;;2.70;1.40;;;;;;;16.11;48.70;98122.98;106296;1277;137263;-75
2022/05/22 08:41:01;;;;;;;1.90;0.80;;;;;;;16.06;47.91;98124.84;106314;1276;22706;-75
2022/05/22 08:43:51;;;;;;;5.10;1.20;;;;;;;15.89;47.60;98127.02;105991;1274;137903;-75
2022/05/22 08:46:35;;;;;;;2.30;0.90;;;;;;;15.77;48.34;98129.26;106463;1274;24315;-74
2022/05/22 08:49:21;;;;;;;4.10;1.20;;;;;;;15.71;48.61;98138.55;106057;1277;22537;-75
2022/05/22 08:51:54;;;;;;;2.20;1.00;;;;;;;15.63;48.44;98132.25;106007;1277;138153;-75
2022/05/22 08:54:21;;;;;;;3.40;1.10;;;;;;;15.65;48.19;98120.33;106545;1277;24314;-74
2022/05/22 08:59:39;;;;;;;2.80;1.50;;;;;;;15.84;48.20;98114.60;106131;1277;22622;-76
2022/05/22 09:02:36;;;;;;;4.60;1.20;;;;;;;15.77;48.88;98117.90;106644;1274;137151;-73
2022/05/22 09:05:13;;;;;;;4.20;1.20;;;;;;;15.71;48.76;98114.45;107101;1274;22687;-73
2022/05/22 09:07:53;;;;;;;2.20;1.20;;;;;;;15.71;48.40;98111.27;106510;1276;137419;-77
2022/05/22 09:10:24;;;;;;;3.00;1.20;;;;;;;15.89;48.89;98109.99;106525;1275;22594;-74
2022/05/22 09:13:27;;;;;;;1.80;0.90;;;;;;;15.99;47.96;98107.70;106542;1274;24230;-74
2022/05/22 09:16:12;;;;;;;1.10;0.70;;;;;;;15.95;47.48;98107.20;106386;1276;137016;-75
2022/05/22 09:18:58;;;;;;;1.90;1.00;;;;;;;16.08;48.07;98109.88;106727;1274;24302;-75
2022/05/22 09:21:29;;;;;;;1.40;0.90;;;;;;;16.58;47.02;98102.85;106224;1276;137238;-74
2022/05/22 09:24:07;;;;;;;2.70;0.80;;;;;;;16.91;45.50;98100.65;106525;1277;22697;-77
2022/05/22 09:27:02;;;;;;;3.00;0.80;;;;;;;17.00;45.11;98100.64;106453;1277;137214;-73
2022/05/22 09:29:55;;;;;;;1.60;1.00;;;;;;;17.04;44.69;98104.11;106764;1277;24097;-74
2022/05/22 09:32:43;;;;;;;2.40;1.10;;;;;;;17.03;44.50;98104.45;106215;1277;137303;-74
2022/05/22 09:35:16;;;;;;;3.20;1.00;;;;;;;17.06;44.69;98112.61;106050;1277;22551;-75
2022/05/22 09:38:11;;;;;;;4.10;1.30;;;;;;;17.07;44.33;98115.68;106224;1277;137329;-75
2022/05/22 09:40:49;;;;;;;2.20;0.80;;;;;;;17.05;43.83;98113.29;106609;1277;24317;-75
2022/05/22 09:43:40;;;;;;;8.20;1.30;;;;;;;17.28;42.48;98104.62;106764;1277;22538;-76
2022/05/22 09:46:42;;;;;;;1.90;0.80;;;;;;;17.73;42.99;98087.66;106639;1277;24230;-75
2022/05/22 09:49:37;;;;;;;2.20;0.60;;;;;;;17.88;41.70;98089.91;106400;1279;25483;-75
2022/05/22 09:52:27;;;;;;;2.60;0.80;;;;;;;17.76;41.54;98093.61;106289;1277;137149;-75
2022/05/22 09:55:06;;;;;;;3.40;0.80;;;;;;;17.68;41.97;98092.83;106276;1277;24232;-75
2022/05/22 09:58:07;;;;;;;2.00;0.70;;;;;;;17.55;40.01;98093.17;106286;1276;137758;-76
2022/05/22 10:00:37;;;;;;;2.10;0.60;;;;;;;17.33;40.30;98090.71;106799;1277;22760;-73
2022/05/22 10:03:35;;;;;;;1.70;1.00;;;;;;;17.23;41.40;98090.45;106736;1277;137727;-74
2022/05/22 10:06:27;;;;;;;2.50;1.00;;;;;;;17.40;41.96;98090.29;106389;1277;22710;-75
2022/05/22 10:09:15;;;;;;;2.20;1.00;;;;;;;17.53;41.92;98084.69;106427;1277;137171;-76
2022/05/22 10:12:08;;;;;;;2.00;0.60;;;;;;;17.67;42.04;98083.46;107481;1276;26034;-75
2022/05/22 10:15:04;;;;;;;1.70;0.80;;;;;;;17.74;41.21;98082.80;106241;1277;137683;-75
2022/05/22 10:17:44;;;;;;;1.90;0.80;;;;;;;17.66;40.72;98083.42;106168;1277;25958;-75
2022/05/22 10:20:34;;;;;;;3.30;1.30;;;;;;;17.64;40.85;98081.62;107103;1277;137951;-76
2022/05/22 10:23:37;;;;;;;2.70;0.80;;;;;;;17.66;41.01;98078.95;106889;1277;22563;-75
2022/05/22 10:26:25;;;;;;;1.70;0.70;;;;;;;17.70;40.85;98078.41;106510;1277;137471;-76
2022/05/22 10:28:54;;;;;;;4.10;0.70;;;;;;;17.77;40.38;98075.42;106639;1277;25377;-75
2022/05/22 10:31:42;;;;;;;1.20;0.70;;;;;;;17.80;39.79;98080.54;106696;1277;22652;-75
2022/05/22 10:34:47;;;;;;;2.20;1.30;;;;;;;17.75;40.55;98080.97;107702;1277;137296;-75
2022/05/22 10:37:17;;;;;;;2.30;0.70;;;;;;;17.62;40.80;98086.63;106363;1280;26495;-75
2022/05/22 10:39:45;;;;;;;1.30;0.90;;;;;;;17.48;41.16;98075.52;106525;1277;137214;-74
2022/05/22 10:45:33;;;;;;;1.70;1.00;;;;;;;17.53;41.76;98085.77;106746;1277;137212;-75
2022/05/22 10:48:24;;;;;;;4.30;1.30;;;;;;;17.56;41.60;98088.82;105979;1277;25486;-75
2022/05/22 10:50:57;;;;;;;5.00;1.10;;;;;;;17.57;40.78;98082.80;105971;1277;137403;-75
2022/05/22 10:53:47;;;;;;;3.20;1.40;;;;;;;17.41;41.55;98086.08;106147;1276;23996;-75
2022/05/22 10:56:14;;;;;;;4.30;1.30;;;;;;;17.32;42.12;98084.23;106042;1277;137803;-75
2022/05/22 10:58:58;;;;;;;3.20;1.30;;;;;;;17.26;42.73;98086.41;106404;1277;22659;-74
2022/05/22 11:01:41;;;;;;;2.50;1.00;;;;;;;17.26;43.01;98087.34;105975;1277;23050;-75
2022/05/22 11:04:17;;;;;;;2.90;1.00;;;;;;;17.28;42.64;98088.75;106542;1277;137388;-75
2022/05/22 11:06:53;;;;;;;6.20;1.00;;;;;;;17.35;42.51;98089.48;106546;1277;25392;-75
2022/05/22 11:09:29;;;;;;;2.20;0.60;;;;;;;17.40;41.59;98085.98;106290;1277;137800;-75
2022/05/22 11:12:19;;;;;;;2.00;1.10;;;;;;;17.45;40.68;98086.67;106343;1277;25606;-75
2022/05/22 11:14:46;;;;;;;1.40;0.80;;;;;;;17.46;40.95;98077.85;106118;1277;137087;-75
2022/05/22 11:17:22;;;;;;;2.70;0.80;;;;;;;17.41;40.93;98070.38;106589;1276;24389;-77
2022/05/22 11:19:56;;;;;;;6.00;1.10;;;;;;;17.34;41.67;98072.54;106198;1277;25366;-76
2022/05/22 11:22:31;;;;;;;1.70;0.70;;;;;;;17.33;41.67;98079.98;106222;1277;137677;-76
2022/05/22 11:25:33;;;;;;;3.90;1.10;;;;;;;17.21;41.85;98076.56;106064;1277;23684;-76
2022/05/22 11:28:32;;;;;;;1.50;0.90;;;;;;;17.03;42.36;98080.85;106051;1276;137900;-75
2022/05/22 11:31:27;;;;;;;1.40;1.00;;;;;;;16.93;42.77;98091.38;106143;1276;24515;-75
2022/05/22 11:34:25;;;;;;;2.50;0.80;;;;;;;16.99;43.56;98085.76;106674;1276;137646;-74
2022/05/22 11:37:17;;;;;;;1.80;0.90;;;;;;;17.15;43.52;98080.73;106936;1276;25267;-74
2022/05/22 11:40:23;;;;;;;1.60;0.80;;;;;;;17.41;42.33;98076.27;106061;1277;137924;-75
2022/05/22 11:43:27;;;;;;;3.60;1.30;;;;;;;17.66;41.99;98078.48;106280;1277;22639;-75
2022/05/22 11:46:33;;;;;;;3.40;1.10;;;;;;;17.75;41.03;98074.58;106005;1277;138233;-74
2022/05/22 11:49:29;;;;;;;2.10;1.00;;;;;;;17.77;41.44;98080.27;106599;1277;24784;-75
2022/05/22 11:52:04;;;;;;;2.60;1.10;;;;;;;17.86;41.33;98081.57;105848;1278;138353;-75
2022/05/22 11:55:01;;;;;;;2.60;0.80;;;;;;;17.89;41.52;98086.96;106142;1277;22558;-75
2022/05/22 11:57:44;;;;;;;2.10;0.90;;;;;;;17.83;41.07;98089.36;106557;1277;138275;-75
2022/05/22 12:00:23;;;;;;;4.20;0.80;;;;;;;17.77;40.94;98089.36;107050;1276;30485;-75
2022/05/22 12:03:15;;;;;;;2.00;0.80;;;;;;;17.67;40.81;98091.51;106551;1276;138551;-74
2022/05/22 12:06:20;;;;;;;4.20;0.80;;;;;;;17.59;41.52;98092.77;106475;1276;22644;-74
2022/05/22 12:09:12;;;;;;;4.00;0.90;;;;;;;17.58;41.65;98086.90;105989;1276;137211;-74
2022/05/22 12:11:47;;;;;;;3.10;1.30;;;;;;;17.83;40.22;98083.27;106640;1278;22590;-75
2022/05/22 12:14:29;;;;;;;4.10;0.90;;;;;;;18.23;40.21;98079.20;105883;1279;138499;-74
2022/05/22 12:17:15;;;;;;;3.30;1.10;;;;;;;18.24;39.44;98072.73;105958;1278;25410;-74
2022/05/22 12:19:58;;;;;;;4.80;1.00;;;;;;;18.20;40.25;98078.26;106376;1276;22538;-75
2022/05/22 12:23:07;;;;;;;3.50;0.90;;;;;;;18.20;39.66;98078.41;106227;1277;137095;-75
2022/05/22 12:25:22;;;;;;;1.90;0.70;;;;;;;18.14;38.97;98083.83;106364;1276;22872;-74